VVDN/DAD METAR and TAF weather

Enter ICAO airport designator
Station Type Date Time Source
VVDN METAR 2020/04/03 06:30 UTC NOAA

VVDN 030630Z 11011KT 070V140 8000 FEW015 31/23 Q1012 NOSIG


Station Type Date Time Source
VVDN Decoded METAR 2020/04/03 06:30 UTC NOAA

Da Nang, Vietnam (VVDN) 16-02N 108-11E 7M
Apr 03, 2020 - 02:30 AM EDT / 2020.04.03 0630 UTC
Wind: from the ESE (110 degrees) at 13 MPH (11 KT) (direction variable):0
Visibility: 4 mile(s):0
Sky conditions: mostly clear
Temperature: 87 F (31 C)
Heat index: 93.9 F (34.4 C):1
Dew Point: 73 F (23 C)
Relative Humidity: 62%
Pressure (altimeter): 29.88 in. Hg (1012 hPa)
ob: VVDN 030630Z 11011KT 070V140 8000 FEW015 31/23 Q1012 NOSIG
cycle: 6

Station Type Date Time Source
VVDN TAF 2020/04/03 06:36 UTC NOAA

TAF VVDN 030500Z 0306/0406 11012KT 9999 FEW015
BECMG 0317/0318 22004KT
BECMG 0320/0322 4000 BR
BECMG 0400/0401 6000 NSW

Example: see airport list